Time;durP1;ratioP1;P1;durP2;ratioP2;P2;SDS_P1;SDS_P2;PMS_P1;PMS_P2;Temp;Humidity;BMP_temperature;BMP_pressure;BME280_temperature;BME280_humidity;BME280_pressure;Samples;Min_cycle;Max_cycle;Signal;HPM_P1;HPM_P2
2022/03/09 00:01:50;;;;;;;;;54.75;43.25;;;;;10.80;38.44;101402.34;5052987;28;45217;-69
2022/03/09 00:04:16;;;;;;;;;57.25;44.50;;;;;10.78;38.27;101393.38;5053878;28;45149;-69
2022/03/09 00:06:41;;;;;;;;;58.25;43.25;;;;;10.80;38.62;101405.94;5064332;27;45047;-69
2022/03/09 00:09:06;;;;;;;;;60.75;42.50;;;;;10.72;38.88;101393.16;5062212;28;45045;-69
2022/03/09 00:11:32;;;;;;;;;51.00;42.00;;;;;10.79;39.11;101412.16;5053057;28;45184;-69
2022/03/09 00:13:58;;;;;;;;;59.00;44.75;;;;;10.78;39.03;101412.09;5062075;28;45817;-70
2022/03/09 00:16:23;;;;;;;;;53.50;41.00;;;;;10.77;39.01;101408.50;5052267;28;45129;-69
2022/03/09 00:18:49;;;;;;;;;55.25;42.50;;;;;10.74;38.57;101404.81;5072612;28;45020;-69
2022/03/09 00:21:15;;;;;;;;;60.50;43.75;;;;;10.77;38.75;101410.25;5071963;28;45158;-69
2022/03/09 00:23:40;;;;;;;;;55.75;42.00;;;;;10.67;38.59;101403.66;5071236;28;45635;-68
2022/03/09 00:26:06;;;;;;;;;59.00;42.50;;;;;10.59;39.16;101398.06;5066468;28;45165;-68
2022/03/09 00:28:32;;;;;;;;;54.75;42.75;;;;;10.65;39.20;101408.06;5052528;28;44890;-69
2022/03/09 00:30:57;;;;;;;;;60.50;43.75;;;;;10.51;38.84;101392.44;5052373;28;44989;-70
2022/03/09 00:33:22;;;;;;;;;62.00;43.50;;;;;10.52;39.46;101393.34;5052361;28;45968;-69
2022/03/09 00:35:48;;;;;;;;;54.50;42.00;;;;;10.65;38.95;101422.31;5051904;28;45000;-70
2022/03/09 00:38:13;;;;;;;;;60.00;43.00;;;;;10.43;39.35;101377.88;5052107;28;44984;-69
2022/03/09 00:40:38;;;;;;;;;62.75;44.75;;;;;10.67;38.74;101428.66;5052033;28;45228;-69
2022/03/09 00:43:04;;;;;;;;;52.25;42.00;;;;;10.62;39.00;101410.63;5051341;28;46134;-68
2022/03/09 00:45:29;;;;;;;;;56.25;40.25;;;;;10.70;39.16;101423.41;5072490;28;45083;-69
2022/03/09 00:47:55;;;;;;;;;56.50;44.00;;;;;10.72;39.25;101423.44;5071120;28;44981;-69
2022/03/09 00:50:20;;;;;;;;;54.75;39.75;;;;;10.73;39.13;101424.38;5071073;28;45047;-70
2022/03/09 00:52:47;;;;;;;;;54.00;41.50;;;;;10.58;39.35;101398.00;5073682;28;45426;-68
2022/03/09 00:55:13;;;;;;;;;56.75;43.75;;;;;10.60;39.42;101397.19;5073704;28;45069;-69
2022/03/09 00:57:38;;;;;;;;;57.50;43.25;;;;;10.76;38.91;101433.41;5078698;27;45121;-69
2022/03/09 01:00:04;;;;;;;;;58.00;44.50;;;;;10.76;39.34;101436.09;5055572;28;45130;-69
2022/03/09 01:02:29;;;;;;;;;60.25;40.50;;;;;10.77;39.10;101435.22;5054757;28;46081;-71
2022/03/09 01:04:55;;;;;;;;;59.25;45.50;;;;;10.70;39.50;101428.75;5060558;28;45147;-68
2022/03/09 01:07:20;;;;;;;;;58.75;45.50;;;;;10.17;39.16;101343.94;5055070;28;45111;-69
2022/03/09 01:09:46;;;;;;;;;61.00;45.25;;;;;10.72;39.22;101439.50;5055282;28;45112;-69
2022/03/09 01:12:11;;;;;;;;;57.00;42.75;;;;;10.67;39.39;101435.75;5069220;28;45152;-69
2022/03/09 01:14:36;;;;;;;;;60.50;43.00;;;;;10.68;39.41;101437.56;5075003;28;45098;-69
2022/03/09 01:17:02;;;;;;;;;53.75;42.00;;;;;10.69;39.69;101439.38;5075002;28;44919;-68
2022/03/09 01:19:27;;;;;;;;;55.25;39.75;;;;;10.69;39.30;101447.38;5068098;28;45107;-70
2022/03/09 01:21:52;;;;;;;;;62.00;46.00;;;;;10.63;39.54;101439.16;5055208;28;46199;-68
2022/03/09 01:24:18;;;;;;;;;52.25;42.50;;;;;10.69;39.69;101439.38;5055349;28;45053;-68
2022/03/09 01:26:43;;;;;;;;;59.75;43.75;;;;;10.45;40.04;101402.88;5057989;28;45076;-69
2022/03/09 01:29:09;;;;;;;;;61.75;44.50;;;;;10.69;39.84;101444.72;5073358;28;45100;-68
2022/03/09 01:31:35;;;;;;;;;56.25;42.75;;;;;10.58;39.64;101420.28;5074029;28;45414;-68
2022/03/09 01:34:00;;;;;;;;;55.75;44.25;;;;;10.64;40.53;101440.97;5070815;28;45299;-69
2022/03/09 01:36:26;;;;;;;;;60.00;44.00;;;;;10.72;39.60;101443.94;5054615;28;44973;-68
2022/03/09 01:38:51;;;;;;;;;59.25;44.25;;;;;10.73;39.97;101440.41;5072939;28;45180;-69
2022/03/09 01:41:16;;;;;;;;;56.50;43.75;;;;;10.75;39.95;101444.06;5054722;28;45834;-69
2022/03/09 01:43:42;;;;;;;;;55.75;42.25;;;;;10.50;39.65;101401.28;5054437;28;45019;-68
2022/03/09 01:46:07;;;;;;;;;52.75;43.00;;;;;10.75;39.65;101439.59;5054520;28;45308;-69
2022/03/09 01:48:32;;;;;;;;;56.50;44.50;;;;;10.75;40.00;101430.69;5054854;28;44934;-68
2022/03/09 01:50:58;;;;;;;;;57.50;43.50;;;;;10.57;40.61;101394.41;5054229;28;45143;-68
2022/03/09 01:53:24;;;;;;;;;51.00;39.25;;;;;10.48;40.54;101383.41;5062111;28;44943;-69
2022/03/09 01:55:49;;;;;;;;;57.25;43.75;;;;;10.76;40.15;101432.53;5067928;27;44964;-69
2022/03/09 01:58:14;;;;;;;;;58.00;43.00;;;;;10.57;40.76;101398.84;5055250;28;44932;-69
2022/03/09 02:00:40;;;;;;;;;57.25;44.00;;;;;10.58;40.28;101408.69;5061225;28;45491;-69
2022/03/09 02:03:05;;;;;;;;;51.50;40.50;;;;;10.77;40.67;101435.22;5051484;28;45374;-68
2022/03/09 02:05:31;;;;;;;;;53.50;40.75;;;;;10.58;41.16;101390.00;5052144;28;44874;-69
2022/03/09 02:10:40;;;;;;;;;55.25;42.75;;;;;10.63;41.16;101413.34;5065457;28;45071;-69
2022/03/09 02:13:09;;;;;;;;;53.75;39.50;;;;;10.70;40.83;101415.38;5071291;28;45287;-69
2022/03/09 02:15:35;;;;;;;;;55.50;41.75;;;;;10.73;40.92;101411.03;5074421;28;45227;-69
2022/03/09 02:18:00;;;;;;;;;52.50;39.00;;;;;10.61;41.50;101383.00;5089570;28;45234;-69
2022/03/09 02:20:26;;;;;;;;;50.50;40.00;;;;;10.75;41.49;101412.88;5073429;28;45213;-69
2022/03/09 02:22:53;;;;;;;;;50.25;40.75;;;;;10.51;41.50;101372.84;5073360;28;45101;-68
2022/03/09 02:25:19;;;;;;;;;54.25;43.75;;;;;10.75;41.26;101425.34;5063880;28;45199;-68
2022/03/09 02:27:45;;;;;;;;;61.25;42.75;;;;;10.74;41.29;101428.84;5054244;28;44724;-69
2022/03/09 02:30:16;;;;;;;;;53.75;41.00;;;;;10.46;41.14;101380.66;5070515;28;46842;-69
2022/03/09 02:32:47;;;;;;;;;55.00;44.00;;;;;10.67;41.53;101425.06;5073488;28;44976;-69
2022/03/09 02:35:14;;;;;;;;;54.00;40.25;;;;;10.65;41.59;101429.44;5073383;28;45337;-69
2022/03/09 02:37:40;;;;;;;;;56.00;43.25;;;;;10.64;41.74;101428.53;5072235;28;45267;-68
2022/03/09 02:40:14;;;;;;;;;53.75;42.25;;;;;10.22;42.43;101347.66;5072841;28;45662;-68
2022/03/09 02:42:40;;;;;;;;;52.75;39.25;;;;;10.66;42.75;101420.59;5073440;28;45186;-69
2022/03/09 02:45:05;;;;;;;;;58.75;46.25;;;;;10.65;43.21;101424.09;5074233;28;45131;-69
2022/03/09 02:47:31;;;;;;;;;61.00;43.50;;;;;10.64;43.13;101419.59;5072027;28;45203;-67
2022/03/09 02:49:56;;;;;;;;;56.00;38.25;;;;;10.64;44.01;101416.91;5055312;28;45534;-68
2022/03/09 02:52:22;;;;;;;;;46.50;36.50;;;;;10.63;44.75;101424.03;5054093;28;45142;-68
2022/03/09 02:54:47;;;;;;;;;40.25;35.00;;;;;10.42;45.56;101384.06;5059563;28;45411;-68
2022/03/09 02:57:13;;;;;;;;;46.00;35.25;;;;;10.63;47.19;101429.38;5054334;28;45029;-68
2022/03/09 02:59:38;;;;;;;;;38.25;28.00;;;;;10.62;49.12;101432.88;5065578;28;47282;-68
2022/03/09 03:02:04;;;;;;;;;25.50;19.75;;;;;10.62;50.05;101434.66;5053480;28;44973;-68
2022/03/09 03:04:29;;;;;;;;;23.50;20.00;;;;;10.61;51.30;101441.78;5071769;28;45157;-68
2022/03/09 03:06:54;;;;;;;;;22.50;19.00;;;;;10.60;51.88;101447.97;5072901;28;45179;-68
2022/03/09 03:09:20;;;;;;;;;24.50;19.25;;;;;10.62;51.98;101450.69;5072046;28;45074;-70
2022/03/09 03:11:45;;;;;;;;;29.75;19.00;;;;;10.59;52.44;101443.50;5056579;28;45003;-67
2022/03/09 03:14:10;;;;;;;;;31.75;24.50;;;;;10.58;52.47;101439.00;5056009;28;45021;-69
2022/03/09 03:16:36;;;;;;;;;20.25;18.00;;;;;10.64;52.85;101443.63;5054051;28;44926;-69
2022/03/09 03:19:02;;;;;;;;;18.50;17.00;;;;;10.64;53.16;101444.56;5053069;28;45440;-69
2022/03/09 03:21:27;;;;;;;;;19.25;16.00;;;;;10.39;53.78;101399.97;5053425;28;45286;-68
2022/03/09 03:23:53;;;;;;;;;15.00;14.25;;;;;10.56;53.37;101424.66;5053001;28;45032;-69
2022/03/09 03:26:18;;;;;;;;;23.75;18.75;;;;;10.61;55.06;101433.75;5052975;28;44957;-69
2022/03/09 03:28:43;;;;;;;;;16.25;15.50;;;;;10.59;54.68;101431.88;5064281;28;45921;-69
2022/03/09 03:31:09;;;;;;;;;17.25;15.50;;;;;10.47;54.42;101403.84;5053360;28;45072;-68
2022/03/09 03:33:34;;;;;;;;;22.25;18.75;;;;;10.24;54.59;101362.88;5051489;28;45079;-68
2022/03/09 03:35:59;;;;;;;;;33.75;27.50;;;;;10.51;53.24;101410.25;5051466;28;45166;-69
2022/03/09 03:38:25;;;;;;;;;39.00;35.50;;;;;10.64;50.99;101427.59;5051214;28;45110;-68
2022/03/09 03:40:50;;;;;;;;;43.25;35.00;;;;;10.37;49.80;101385.66;5050646;28;44988;-68
2022/03/09 03:43:15;;;;;;;;;44.75;37.00;;;;;10.53;49.14;101407.63;5053207;28;45404;-68
2022/03/09 03:45:41;;;;;;;;;43.75;34.75;;;;;10.29;48.64;101381.75;5055025;28;45020;-68
2022/03/09 03:48:06;;;;;;;;;45.75;36.00;;;;;10.58;48.58;101432.75;5052034;28;45290;-68
2022/03/09 03:50:32;;;;;;;;;50.25;38.00;;;;;10.55;48.42;101428.19;5052139;28;45169;-69
2022/03/09 03:52:58;;;;;;;;;52.00;36.00;;;;;10.46;48.23;101418.06;5067713;28;45186;-69
2022/03/09 03:55:23;;;;;;;;;49.25;39.25;;;;;10.48;48.26;101427.03;5072542;28;44936;-67
2022/03/09 03:57:51;;;;;;;;;54.00;41.50;;;;;10.50;47.82;101436.03;5071613;28;45468;-67
2022/03/09 04:00:17;;;;;;;;;54.00;39.75;;;;;10.37;46.73;101441.75;5072042;28;45156;-69
2022/03/09 04:02:42;;;;;;;;;56.50;43.00;;;;;10.14;47.20;101404.34;5071374;28;44945;-68
2022/03/09 04:05:07;;;;;;;;;45.25;39.25;;;;;10.18;47.21;101410.75;5057941;28;46341;-68
2022/03/09 04:07:34;;;;;;;;;57.50;41.50;;;;;10.39;46.86;101447.16;5060082;28;45279;-68
2022/03/09 04:09:59;;;;;;;;;54.25;42.00;;;;;10.41;46.18;101450.78;5068396;28;45063;-68
2022/03/09 04:12:25;;;;;;;;;58.00;43.25;;;;;10.36;45.93;101449.72;5068879;28;45440;-68
2022/03/09 04:14:51;;;;;;;;;57.00;42.50;;;;;10.39;46.46;101450.72;5052294;28;45083;-68
2022/03/09 04:17:17;;;;;;;;;68.00;53.00;;;;;10.08;46.25;101398.78;5050206;28;46386;-68
2022/03/09 04:19:42;;;;;;;;;62.50;46.75;;;;;10.17;45.70;101440.06;5051716;28;45105;-68
2022/03/09 04:22:07;;;;;;;;;63.75;46.00;;;;;9.95;46.17;101409.84;5052391;28;45403;-68
2022/03/09 04:24:33;;;;;;;;;61.75;44.50;;;;;10.14;45.90;101455.06;5060415;28;45194;-68
2022/03/09 04:26:58;;;;;;;;;64.00;46.75;;;;;10.02;46.51;101440.34;5051447;28;45562;-68
2022/03/09 04:29:23;;;;;;;;;60.75;45.50;;;;;10.04;46.14;101452.91;5051392;28;45159;-68
2022/03/09 04:31:49;;;;;;;;;58.75;44.50;;;;;9.91;47.04;101456.81;5050993;28;44962;-68
2022/03/09 04:34:14;;;;;;;;;56.50;43.25;;;;;9.81;47.06;101443.06;5063480;28;44906;-69
2022/03/09 04:36:40;;;;;;;;;53.50;42.25;;;;;9.84;46.25;101448.53;5052483;28;45796;-69
2022/03/09 04:39:05;;;;;;;;;53.25;42.75;;;;;9.73;46.62;101429.41;5051615;28;44918;-68
2022/03/09 04:41:30;;;;;;;;;62.50;47.25;;;;;9.62;46.85;101420.03;5052426;28;44980;-68
2022/03/09 04:43:56;;;;;;;;;65.25;44.75;;;;;9.80;46.68;101442.16;5054923;28;45004;-68
2022/03/09 04:46:22;;;;;;;;;61.50;47.00;;;;;9.17;47.08;101351.53;5050266;28;45620;-69
2022/03/09 04:48:49;;;;;;;;;64.75;46.50;;;;;9.66;47.51;101456.69;5049862;28;45171;-68
2022/03/09 04:51:15;;;;;;;;;62.00;46.00;;;;;9.38;47.10;101423.53;5065763;28;45625;-69
2022/03/09 04:53:40;;;;;;;;;60.50;45.75;;;;;9.63;47.25;101462.81;5066682;27;45326;-69
2022/03/09 04:56:06;;;;;;;;;59.50;44.00;;;;;9.46;47.95;101442.53;5071404;28;45475;-67
2022/03/09 04:58:32;;;;;;;;;58.00;45.50;;;;;9.50;47.54;101445.41;5071529;28;45126;-69
2022/03/09 05:00:57;;;;;;;;;56.00;45.25;;;;;9.54;48.08;101470.44;5070999;28;44992;-68
2022/03/09 05:03:23;;;;;;;;;52.75;41.75;;;;;9.59;46.67;101471.53;5070971;28;45028;-68
2022/03/09 05:05:48;;;;;;;;;55.50;40.25;;;;;9.61;46.98;101479.59;5070695;28;51442;-69
2022/03/09 05:08:13;;;;;;;;;58.25;45.00;;;;;9.48;47.24;101475.50;5057913;28;44907;-69
2022/03/09 05:10:39;;;;;;;;;56.00;44.25;;;;;9.44;47.24;101473.53;5051242;28;45220;-68
2022/03/09 05:13:04;;;;;;;;;61.25;48.50;;;;;9.46;47.28;101482.53;5057155;28;45125;-68
2022/03/09 05:15:30;;;;;;;;;61.50;43.50;;;;;9.47;47.29;101474.59;5068735;28;46861;-68
2022/03/09 05:17:55;;;;;;;;;56.50;43.50;;;;;9.38;47.48;101468.88;5062223;28;44973;-68
2022/03/09 05:20:21;;;;;;;;;62.75;44.75;;;;;9.27;47.47;101457.72;5069140;28;44972;-68
2022/03/09 05:22:48;;;;;;;;;62.25;44.00;;;;;9.33;48.49;101482.00;5053629;28;45052;-69
2022/03/09 05:25:13;;;;;;;;;62.25;46.50;;;;;9.27;49.59;101495.06;5054860;28;45050;-70
2022/03/09 05:27:40;;;;;;;;;62.25;44.00;;;;;9.16;49.13;101486.59;5052989;28;45087;-69
2022/03/09 05:30:06;;;;;;;;;55.00;39.25;;;;;9.22;49.98;101507.28;5051252;28;45146;-69
2022/03/09 05:32:32;;;;;;;;;27.75;16.25;;;;;9.01;49.54;101462.84;5051690;28;45037;-69
2022/03/09 05:34:57;;;;;;;;;55.50;40.75;;;;;9.30;50.02;101496.94;5053430;28;46050;-68
2022/03/09 05:37:23;;;;;;;;;55.00;43.25;;;;;9.34;50.06;101502.50;5050623;28;45147;-69
2022/03/09 05:39:48;;;;;;;;;48.25;36.25;;;;;9.23;49.41;101483.34;5052337;28;45579;-67
2022/03/09 05:42:14;;;;;;;;;53.25;38.00;;;;;9.17;49.01;101463.50;5060338;28;45071;-69
2022/03/09 05:44:39;;;;;;;;;52.25;39.00;;;;;9.31;50.09;101502.34;5051618;28;45729;-68
2022/03/09 05:47:05;;;;;;;;;50.25;36.25;;;;;9.15;49.52;101486.53;5051534;28;45098;-68
2022/03/09 05:49:31;;;;;;;;;54.00;40.75;;;;;9.38;49.86;101517.78;5058385;28;45367;-68
2022/03/09 05:51:56;;;;;;;;;52.75;40.50;;;;;9.37;50.45;101523.97;5054944;28;45025;-69
2022/03/09 05:54:21;;;;;;;;;46.00;36.50;;;;;9.29;50.75;101529.78;5073867;28;45495;-69
2022/03/09 05:56:47;;;;;;;;;52.00;39.75;;;;;9.18;50.05;101532.00;5074016;28;44988;-70
2022/03/09 05:59:13;;;;;;;;;47.75;34.25;;;;;9.09;50.27;101528.91;5070774;28;45230;-70
2022/03/09 06:01:38;;;;;;;;;51.25;39.25;;;;;8.99;51.67;101532.91;5052382;28;45031;-68
2022/03/09 06:04:04;;;;;;;;;43.00;36.25;;;;;8.96;51.28;101531.03;5051666;28;45155;-70
2022/03/09 06:06:30;;;;;;;;;51.75;38.25;;;;;8.75;51.69;101512.31;5055181;28;45608;-69
2022/03/09 06:08:56;;;;;;;;;56.25;41.75;;;;;8.79;51.79;101534.66;5063916;28;45060;-68
2022/03/09 06:11:21;;;;;;;;;56.00;41.50;;;;;8.85;51.48;101537.63;5051370;28;45273;-68
2022/03/09 06:13:46;;;;;;;;;48.75;38.75;;;;;8.77;51.90;101528.34;5052214;28;45152;-67
2022/03/09 06:16:12;;;;;;;;;62.00;45.25;;;;;8.82;51.17;101538.38;5062103;28;45060;-68
2022/03/09 06:18:38;;;;;;;;;57.00;43.00;;;;;8.77;52.29;101531.03;5065038;28;45287;-69
2022/03/09 06:21:03;;;;;;;;;54.25;43.00;;;;;8.63;52.45;101507.31;5072130;28;45125;-68
2022/03/09 06:23:28;;;;;;;;;44.00;38.75;;;;;8.67;52.37;101511.03;5053535;28;45596;-69
2022/03/09 06:25:54;;;;;;;;;55.50;40.25;;;;;8.54;53.00;101509.53;5062440;28;45013;-69
2022/03/09 06:28:19;;;;;;;;;50.50;38.50;;;;;8.81;52.20;101547.22;5053231;28;45163;-70
2022/03/09 06:30:45;;;;;;;;;56.50;41.25;;;;;8.63;52.70;101519.75;5052966;28;45418;-69
2022/03/09 06:33:10;;;;;;;;;49.50;40.50;;;;;8.50;52.63;101502.28;5064307;28;45686;-69
2022/03/09 06:35:36;;;;;;;;;60.50;42.00;;;;;8.63;53.77;101538.38;5055774;28;45544;-69
2022/03/09 06:38:02;;;;;;;;;60.00;37.75;;;;;8.53;53.00;101534.38;5065247;28;45102;-70
2022/03/09 06:40:27;;;;;;;;;45.25;34.25;;;;;8.64;53.62;101561.50;5072111;28;44942;-68
2022/03/09 06:42:52;;;;;;;;;53.50;39.00;;;;;8.66;53.62;101567.81;5071300;28;45420;-69
2022/03/09 06:45:18;;;;;;;;;54.50;40.25;;;;;8.69;54.39;101565.28;5060392;28;45414;-68
2022/03/09 06:47:43;;;;;;;;;51.50;39.75;;;;;8.66;54.28;101562.47;5045687;28;45399;-68
2022/03/09 06:50:10;;;;;;;;;47.25;31.75;;;;;8.70;54.68;101568.88;5040410;28;45267;-68
2022/03/09 06:52:36;;;;;;;;;49.75;40.75;;;;;8.69;53.92;101567.06;5045582;28;46081;-68
2022/03/09 06:55:03;;;;;;;;;54.25;40.00;;;;;7.99;54.52;101456.34;5039799;28;45492;-69
2022/03/09 06:57:32;;;;;;;;;51.75;39.50;;;;;8.66;54.31;101566.06;5053934;28;45759;-69
2022/03/09 06:59:58;;;;;;;;;50.25;40.50;;;;;8.77;54.30;101555.91;5045683;28;45531;-69
2022/03/09 07:02:24;;;;;;;;;57.25;41.25;;;;;8.73;54.07;101551.28;5054217;27;46074;-69
2022/03/09 07:04:49;;;;;;;;;54.00;40.50;;;;;8.76;53.93;101550.50;5047602;28;45451;-70
2022/03/09 07:07:15;;;;;;;;;57.00;42.75;;;;;8.80;54.77;101557.81;5057572;27;45628;-68
2022/03/09 07:09:40;;;;;;;;;50.75;38.25;;;;;8.80;54.35;101553.38;5062962;28;45095;-69
2022/03/09 07:12:06;;;;;;;;;46.50;36.00;;;;;8.85;54.71;101575.81;5045582;28;45761;-69
2022/03/09 07:14:31;;;;;;;;;33.75;24.25;;;;;8.83;55.42;101573.94;5049914;28;45342;-69
2022/03/09 07:16:56;;;;;;;;;56.25;42.75;;;;;8.75;55.03;101586.00;5062806;28;45114;-69
2022/03/09 07:19:22;;;;;;;;;52.75;42.00;;;;;8.71;54.48;101549.38;5049966;28;45165;-68
2022/03/09 07:21:47;;;;;;;;;56.25;41.00;;;;;8.91;55.59;101584.94;5055012;28;45454;-69
2022/03/09 07:24:13;;;;;;;;;48.25;36.25;;;;;8.94;54.83;101591.34;5056468;28;45114;-69
2022/03/09 07:26:41;;;;;;;;;56.00;41.00;;;;;8.84;55.73;101570.41;5048563;28;44980;-72
2022/03/09 07:29:08;;;;;;;;;47.25;36.50;;;;;8.99;55.27;101595.13;5050383;28;44928;-70
2022/03/09 07:31:33;;;;;;;;;48.75;37.25;;;;;9.03;55.27;101591.75;5049566;28;46324;-68
2022/03/09 07:33:59;;;;;;;;;42.25;36.00;;;;;9.20;55.19;101600.53;5050152;28;45094;-69
2022/03/09 07:36:24;;;;;;;;;46.75;37.50;;;;;9.32;54.81;101604.59;5050079;28;45125;-68
2022/03/09 07:38:49;;;;;;;;;52.75;42.50;;;;;9.17;55.27;101552.41;5057933;28;45689;-69
2022/03/09 07:41:15;;;;;;;;;56.50;36.50;;;;;9.44;55.28;101590.88;5064885;28;46084;-69
2022/03/09 07:43:40;;;;;;;;;46.75;35.50;;;;;9.58;55.39;101604.00;5051967;28;45028;-69
2022/03/09 07:46:05;;;;;;;;;43.50;35.00;;;;;9.67;55.10;101602.56;5061691;28;44999;-69
2022/03/09 07:48:31;;;;;;;;;40.00;34.25;;;;;9.62;55.70;101597.06;5046736;28;45014;-70
2022/03/09 07:50:58;;;;;;;;;46.25;36.75;;;;;9.13;57.06;101512.22;5050865;28;46993;-69
2022/03/09 07:53:23;;;;;;;;;40.50;35.00;;;;;9.58;56.84;101603.09;5056888;28;45213;-70
2022/03/09 07:55:48;;;;;;;;;40.25;34.50;;;;;9.67;57.91;101608.84;5040487;28;45273;-69
2022/03/09 07:58:14;;;;;;;;;39.00;34.25;;;;;9.60;57.58;101601.41;5050587;28;45238;-69
2022/03/09 08:00:39;;;;;;;;;48.75;35.75;;;;;9.45;58.87;101574.97;5062203;28;52344;-69
2022/03/09 08:03:05;;;;;;;;;35.00;31.25;;;;;9.68;58.21;101615.09;5040079;28;45666;-69
2022/03/09 08:05:30;;;;;;;;;47.50;36.50;;;;;9.73;59.00;101617.13;5044024;28;45464;-69
2022/03/09 08:07:55;;;;;;;;;37.00;30.25;;;;;9.78;59.24;101623.56;5047972;28;45416;-67
2022/03/09 08:10:21;;;;;;;;;45.25;33.50;;;;;9.67;60.06;101614.19;5053572;28;45550;-69
2022/03/09 08:12:47;;;;;;;;;41.25;32.00;;;;;9.77;60.27;101632.41;5053106;28;45312;-68
2022/03/09 08:15:12;;;;;;;;;40.25;34.50;;;;;9.79;59.10;101624.47;5053384;28;45370;-69
2022/03/09 08:17:38;;;;;;;;;34.00;29.25;;;;;9.89;59.13;101631.13;5053504;28;45315;-69
2022/03/09 08:20:05;;;;;;;;;33.00;30.25;;;;;9.94;58.68;101626.91;5043267;28;46664;-69
2022/03/09 08:22:30;;;;;;;;;41.25;30.50;;;;;9.99;58.38;101628.00;5046992;28;45425;-69
2022/03/09 08:24:56;;;;;;;;;31.50;29.00;;;;;10.03;58.39;101624.63;5043627;28;45640;-69
2022/03/09 08:27:21;;;;;;;;;40.25;34.50;;;;;10.20;58.53;101627.09;5052976;28;45392;-69
2022/03/09 08:29:47;;;;;;;;;29.00;27.25;;;;;10.25;58.09;101630.88;5051667;28;45584;-69
2022/03/09 08:32:13;;;;;;;;;32.25;31.25;;;;;10.29;57.89;101636.38;5053423;28;45737;-68
2022/03/09 08:34:39;;;;;;;;;33.00;26.00;;;;;10.32;56.94;101636.56;5046942;28;45477;-67
2022/03/09 08:37:04;;;;;;;;;37.50;30.50;;;;;10.30;57.40;101645.34;5039535;28;45457;-70
2022/03/09 08:39:29;;;;;;;;;39.00;33.00;;;;;10.11;58.28;101627.59;5048487;28;47614;-69
2022/03/09 08:41:55;;;;;;;;;39.00;31.00;;;;;10.25;58.14;101645.13;5042975;28;45403;-67
2022/03/09 08:44:21;;;;;;;;;34.00;25.00;;;;;9.95;58.34;101604.72;5046928;28;45332;-65
2022/03/09 08:46:47;;;;;;;;;38.25;30.75;;;;;10.10;58.35;101602.66;5042752;28;45708;-67
2022/03/09 08:49:12;;;;;;;;;29.25;27.00;;;;;10.31;57.81;101620.41;5033393;28;46030;-66
2022/03/09 08:51:38;;;;;;;;;29.75;27.75;;;;;10.35;58.17;101608.16;5033557;28;45355;-67
2022/03/09 08:54:03;;;;;;;;;28.75;28.50;;;;;10.34;58.17;101601.88;5043904;28;45857;-65
2022/03/09 08:56:29;;;;;;;;;36.00;25.50;;;;;10.10;58.50;101559.06;5040643;28;45620;-67
2022/03/09 08:58:55;;;;;;;;;33.50;28.50;;;;;10.42;58.89;101626.25;5044259;28;45454;-66
2022/03/09 09:01:22;;;;;;;;;22.25;21.25;;;;;10.46;59.55;101628.19;5052685;28;45485;-66
2022/03/09 09:03:47;;;;;;;;;32.25;27.75;;;;;10.18;59.88;101562.00;5052908;28;45302;-66
2022/03/09 09:06:14;;;;;;;;;37.75;23.50;;;;;10.51;59.46;101614.19;5052973;28;45472;-66
2022/03/09 09:08:39;;;;;;;;;37.00;24.25;;;;;10.69;59.75;101643.41;5039256;28;45516;-66
2022/03/09 09:11:05;;;;;;;;;36.75;28.25;;;;;10.67;59.44;101630.81;5033560;28;45549;-65
2022/03/09 09:13:30;;;;;;;;;31.00;22.75;;;;;10.61;59.44;101617.22;5048236;28;45408;-67
2022/03/09 09:15:55;;;;;;;;;25.50;25.00;;;;;10.79;59.64;101611.69;5037531;28;45358;-66
2022/03/09 09:18:21;;;;;;;;;28.75;26.50;;;;;10.97;59.40;101622.19;5037269;28;45433;-68
2022/03/09 09:20:46;;;;;;;;;31.25;24.25;;;;;11.11;59.19;101637.00;5036888;28;45362;-67
2022/03/09 09:23:12;;;;;;;;;20.50;18.50;;;;;11.12;58.71;101628.16;5037079;28;45404;-67
2022/03/09 09:25:37;;;;;;;;;30.25;24.50;;;;;11.21;58.96;101630.25;5044038;28;45480;-66
2022/03/09 09:28:03;;;;;;;;;31.50;22.25;;;;;11.14;58.73;101612.16;5055900;28;46123;-67
2022/03/09 09:30:30;;;;;;;;;33.25;29.25;;;;;11.31;58.96;101631.53;5055842;28;45505;-67
2022/03/09 09:32:56;;;;;;;;;30.00;26.25;;;;;11.41;58.04;101622.97;5056110;28;45456;-65
2022/03/09 09:35:21;;;;;;;;;31.25;26.75;;;;;11.35;58.46;101609.34;5072118;28;45371;-67
2022/03/09 09:37:47;;;;;;;;;25.50;24.50;;;;;11.29;58.36;101606.47;5042744;28;45689;-67
2022/03/09 09:40:14;;;;;;;;;30.75;25.00;;;;;11.44;58.18;101623.09;5036607;28;45552;-66
2022/03/09 09:42:40;;;;;;;;;23.75;20.00;;;;;11.46;58.46;101628.50;5035722;28;45525;-66
2022/03/09 09:45:07;;;;;;;;;30.25;24.25;;;;;11.55;58.20;101615.44;5036336;28;45624;-67
2022/03/09 09:47:33;;;;;;;;;24.00;21.00;;;;;11.43;58.03;101582.06;5036770;28;47108;-67
2022/03/09 09:50:00;;;;;;;;;28.25;23.00;;;;;11.70;58.24;101613.34;5036143;28;45562;-66
2022/03/09 09:52:26;;;;;;;;;19.75;19.00;;;;;11.41;58.17;101532.91;5036239;28;45489;-67
2022/03/09 09:54:54;;;;;;;;;23.25;17.25;;;;;11.72;58.22;101582.16;5036457;28;45542;-66
2022/03/09 09:57:19;;;;;;;;;22.50;17.00;;;;;11.90;57.77;101600.63;5036225;28;46203;-66
2022/03/09 09:59:45;;;;;;;;;18.75;17.25;;;;;11.88;58.12;101598.75;5036561;28;45421;-68
2022/03/09 10:02:12;;;;;;;;;45.00;38.25;;;;;12.05;58.19;101612.78;5053076;28;45291;-67
2022/03/09 10:04:40;;;;;;;;;16.75;14.50;;;;;12.09;58.51;101604.91;5053573;28;45362;-66
2022/03/09 10:07:06;;;;;;;;;23.00;19.50;;;;;12.18;57.89;101606.97;5051773;28;46274;-66
2022/03/09 10:09:39;;;;;;;;;17.25;17.00;;;;;12.22;58.03;101597.28;5053767;28;45540;-66
2022/03/09 10:12:06;;;;;;;;;19.25;16.50;;;;;12.26;57.18;101599.19;5054349;28;45437;-67
2022/03/09 10:14:50;;;;;;;;;22.25;18.50;;;;;12.21;57.30;101580.28;5055462;28;45368;-66
2022/03/09 10:17:17;;;;;;;;;23.75;18.25;;;;;12.39;56.96;101600.50;5049861;28;46620;-67
2022/03/09 10:19:52;;;;;;;;;19.00;18.00;;;;;12.47;57.62;101616.00;5053491;28;45382;-67
2022/03/09 10:22:29;;;;;;;;;20.00;17.00;;;;;12.53;57.24;101607.22;5050791;27;45444;-67
2022/03/09 10:24:58;;;;;;;;;15.75;15.75;;;;;12.57;57.09;101585.00;5047538;28;45376;-67
2022/03/09 10:27:39;;;;;;;;;14.75;11.25;;;;;12.91;55.63;101572.66;5035267;28;45518;-68
2022/03/09 10:30:17;;;;;;;;;12.50;11.75;;;;;13.16;55.24;101562.63;5050353;28;45459;-67
2022/03/09 10:32:54;;;;;;;;;14.75;13.75;;;;;13.38;54.87;101582.97;5050959;28;45334;-68
2022/03/09 10:35:46;;;;;;;;;14.50;13.25;;;;;13.55;53.93;101586.16;5055210;28;45386;-66
2022/03/09 10:38:15;;;;;;;;;19.25;16.00;;;;;13.69;53.24;101584.72;5048996;28;46094;-68
2022/03/09 10:40:48;;;;;;;;;24.50;22.50;;;;;13.79;53.20;101576.06;5043471;28;45520;-69
2022/03/09 10:43:22;;;;;;;;;17.00;16.00;;;;;13.86;52.87;101576.22;5051519;28;45508;-65
2022/03/09 10:46:04;;;;;;;;;14.00;12.25;;;;;13.87;53.05;101557.44;5054693;28;45564;-67
2022/03/09 10:49:00;;;;;;;;;22.50;14.00;;;;;13.99;52.70;101564.91;5042224;28;45299;-66
2022/03/09 10:51:41;;;;;;;;;19.50;15.50;;;;;13.86;52.51;101536.84;5046231;28;45491;-68
2022/03/09 10:54:09;;;;;;;;;22.00;16.75;;;;;13.70;52.22;101500.63;5045226;28;45504;-67
2022/03/09 10:56:36;;;;;;;;;17.50;16.00;;;;;14.10;51.78;101535.63;5064411;28;45536;-68
2022/03/09 10:59:27;;;;;;;;;19.25;15.00;;;;;14.50;51.33;101564.38;5048432;28;46065;-67
2022/03/09 11:02:08;;;;;;;;;23.00;16.25;;;;;14.56;50.53;101558.22;5042653;28;45390;-67
2022/03/09 11:04:35;;;;;;;;;14.50;13.00;;;;;14.59;50.37;101563.72;5051953;28;45398;-67
2022/03/09 11:07:01;;;;;;;;;25.25;22.25;;;;;14.62;50.37;101569.16;5054171;28;45541;-66
2022/03/09 11:09:27;;;;;;;;;16.50;15.00;;;;;14.47;50.11;101532.06;5044265;28;46143;-69
2022/03/09 11:11:53;;;;;;;;;14.25;11.50;;;;;14.60;49.77;101553.84;5044237;28;45517;-69